WetterOnline ( https://www.wetteronline.de )

Wetter aktuell Norderney

Aktuelles Wetter: Norderney (16m)

6-stündlich | Neueste Meldungen
Ortszeit Temperatur Wetter
Sa, 20.04. 8:00 7.5° C leicht bewölkt
Sa, 20.04. 2:00 7.7° C bewölkt
Fr, 19.04. 20:00 8.2° C leicht bewölkt
Fr, 19.04. 14:00 8.8° C bewölkt
Fr, 19.04. 8:00 8.8° C bedeckt
Fr, 19.04. 2:00 6.7° C leichter Regen
Do, 18.04. 20:00 8.2° C bedeckt
Do, 18.04. 14:00 8.7° C bewölkt
Ortszeit Temperatur Wetter
Sa, 20.04. 8:40 7.3° C bedeckt
Sa, 20.04. 8:30 7.3° C bewölkt
Sa, 20.04. 8:20 7.3° C bewölkt
Sa, 20.04. 8:10 7.6° C bewölkt
Sa, 20.04. 8:00 7.5° C leicht bewölkt
Sa, 20.04. 7:50 7.5° C leicht bewölkt
Sa, 20.04. 7:30 7.3° C bedeckt
Sa, 20.04. 7:00 7.4° C bewölkt
Sa, 20.04. 6:30 7.4° C bewölkt
Sa, 20.04. 6:00 7.4° C bewölkt
Ortszeit Relative Feuchte Sichtweite
Sa, 20.04. 8:00 64% 26 km
Sa, 20.04. 2:00 62% 30 km
Fr, 19.04. 20:00 72% 18 km
Fr, 19.04. 14:00 71% 18 km
Fr, 19.04. 8:00 74% 18 km
Fr, 19.04. 2:00 88% 12 km
Do, 18.04. 20:00 70% 25 km
Do, 18.04. 14:00 61% 35 km
Ortszeit Relative Feuchte Sichtweite
Sa, 20.04. 8:40 73% -
Sa, 20.04. 8:30 69% 18 km
Sa, 20.04. 8:20 69% -
Sa, 20.04. 8:10 70% -
Sa, 20.04. 8:00 64% 26 km
Sa, 20.04. 7:50 64% -
Sa, 20.04. 7:30 67% 22 km
Sa, 20.04. 7:00 67% 23 km
Sa, 20.04. 6:30 67% 29 km
Sa, 20.04. 6:00 66% 35 km
Ortszeit Niederschlagsmenge Niederschlagsart
Sa, 20.04. 8:00 0.1 l/m2 in 12 Std. Regen
Sa, 20.04. 2:00 0.0 l/m2 in 6 Std. -
Fr, 19.04. 20:00 0.4 l/m2 in 12 Std. Regen
Fr, 19.04. 14:00 0.1 l/m2 in 6 Std. Regen
Fr, 19.04. 8:00 6 l/m2 in 12 Std. Regen
Fr, 19.04. 2:00 4 l/m2 in 6 Std. Regen
Do, 18.04. 20:00 0.0 l/m2 in 12 Std. -
Do, 18.04. 14:00 0.0 l/m2 in 6 Std. -
Ortszeit Niederschlagsmenge Niederschlagsart
Sa, 20.04. 8:40 keine Meldung -
Sa, 20.04. 8:30 0.0 l/m2 in 30 Min -
Sa, 20.04. 8:20 keine Meldung -
Sa, 20.04. 8:10 keine Meldung -
Sa, 20.04. 8:00 0.0 l/m2 in 1 Std. Regen
Sa, 20.04. 7:50 keine Meldung -
Sa, 20.04. 7:30 0.0 l/m2 in 30 Min -
Sa, 20.04. 7:00 0.0 l/m2 in 1 Std. -
Sa, 20.04. 6:30 0.0 l/m2 in 30 Min -
Sa, 20.04. 6:00 <0.05 l/m2 in 1 Std. Regen
Ortszeit Stärke Spitze Richtung
km/h Bft. km/h Grad Sektor
Sa, 20.04. 8:00 33 5 56 360° N
Sa, 20.04. 2:00 44 6 72 350° N
Fr, 19.04. 20:00 58 7 79 350° N
Fr, 19.04. 14:00 61 7 79 310° NW
Fr, 19.04. 8:00 43 6 61 300° NW
Fr, 19.04. 2:00 30 5 50 220° SW
Do, 18.04. 20:00 30 5 44 270° W
Do, 18.04. 14:00 29 5 43 300° NW
Ortszeit Stärke Spitze Richtung
km/h Bft. km/h Grad Sektor
Sa, 20.04. 8:40 29 5 - 330° NW
Sa, 20.04. 8:30 30 5 39 350° N
Sa, 20.04. 8:20 30 5 - 350° N
Sa, 20.04. 8:10 32 5 - 350° N
Sa, 20.04. 8:00 33 5 41 360° N
Sa, 20.04. 7:50 33 5 - 360° N
Sa, 20.04. 7:30 32 5 40 350° N
Sa, 20.04. 7:00 31 5 43 360° N
Sa, 20.04. 6:30 33 5 43 360° N
Sa, 20.04. 6:00 33 5 46 350° N
Ortszeit Untergrenze Bedeckung Gattung
total tief tief mittel hoch
Sa, 20.04. 8:00 1470 m 5/8 2/8 - - -
Sa, 20.04. 2:00 1080 m 7/8 7/8 - - -
Fr, 19.04. 20:00 660 m 3/8 3/8 - - -
Fr, 19.04. 14:00 750 m 7/8 7/8 - - -
Fr, 19.04. 8:00 750 m 8/8 8/8 - - -
Fr, 19.04. 2:00 330 m 7/8 7/8 - - -
Do, 18.04. 20:00 750 m 8/8 8/8 - - -
Do, 18.04. 14:00 900 m 7/8 7/8 - - -
Ortszeit Bedeckungsgrad in Achtel und Wolkenuntergrenze
Sa, 20.04. 8:40 8
Sa, 20.04. 8:30 3(960m) 7(1500m) 7(3000m)
Sa, 20.04. 8:20 3(960m) 7(1500m) 7(3000m)
Sa, 20.04. 8:10 7
Sa, 20.04. 8:00 2(1470m) 5(3000m)
Sa, 20.04. 7:50 2(1470m) 5(3000m)
Sa, 20.04. 7:30 5(900m) 8(1500m) 8(3000m)
Sa, 20.04. 7:00 4(900m) 7(1140m) 8(3300m)
Sa, 20.04. 6:30 2(870m) 7(1200m) 8(3300m)
Sa, 20.04. 6:00 3(930m) 7(1140m) 8(3600m)
Ortszeit Luftdruck NN (hPa) Tendenz (hPa in 3 Std.)
Sa, 20.04. 8:00 1017 + 1,9
Sa, 20.04. 2:00 1013 + 1,8
Fr, 19.04. 20:00 1008 + 4,1
Fr, 19.04. 14:00 1003 - 0,4
Fr, 19.04. 8:00 1004 - 1,0
Fr, 19.04. 2:00 1010 - 4,1
Do, 18.04. 20:00 1016 - 1,5
Do, 18.04. 14:00 1018 + 0,2
Ortszeit Luftdruck NN (hPa) Tendenz (hPa in 3 Std.)
Sa, 20.04. 8:40 1017 keine Meldung
Sa, 20.04. 8:30 1017 + 2,1
Sa, 20.04. 8:20 1017 keine Meldung
Sa, 20.04. 8:10 1017 keine Meldung
Sa, 20.04. 8:00 1017 + 1,9
Sa, 20.04. 7:50 1017 keine Meldung
Sa, 20.04. 7:30 1016 + 1,9
Sa, 20.04. 7:00 1016 + 1,7
Sa, 20.04. 6:30 1016 + 1,8
Sa, 20.04. 6:00 1015 + 1,7
Ortszeit Schneehöhe (cm)
Sa, 20.04. 8:00 0
Sa, 20.04. 2:00 0
Fr, 19.04. 20:00 0
Fr, 19.04. 14:00 0
Fr, 19.04. 8:00 0
Fr, 19.04. 2:00 0
Do, 18.04. 20:00 0
Do, 18.04. 14:00 0
Ortszeit Schneehöhe (cm)
Sa, 20.04. 8:40 -
Sa, 20.04. 8:30 0
Sa, 20.04. 8:20 0
Sa, 20.04. 8:10 -
Sa, 20.04. 8:00 0
Sa, 20.04. 7:50 0
Sa, 20.04. 7:30 0
Sa, 20.04. 7:00 0
Sa, 20.04. 6:30 0
Sa, 20.04. 6:00 0
Link zu dieser Seite / Seite empfehlen

Das Wetter in ...